sensor_id;sensor_type;location;lat;lon;timestamp;temperature;humidity
22645;DHT22;11489;50.834;6.752;2023-03-23T00:00:08;13.00;81.50
22645;DHT22;11489;50.834;6.752;2023-03-23T00:02:36;13.00;81.70
22645;DHT22;11489;50.834;6.752;2023-03-23T00:05:04;13.00;81.60
22645;DHT22;11489;50.834;6.752;2023-03-23T00:07:30;12.90;81.70
22645;DHT22;11489;50.834;6.752;2023-03-23T00:09:56;13.00;81.80
22645;DHT22;11489;50.834;6.752;2023-03-23T00:12:24;12.90;81.80
22645;DHT22;11489;50.834;6.752;2023-03-23T00:15:06;12.90;81.90
22645;DHT22;11489;50.834;6.752;2023-03-23T00:17:32;12.90;81.90
22645;DHT22;11489;50.834;6.752;2023-03-23T00:19:59;12.90;82.80
22645;DHT22;11489;50.834;6.752;2023-03-23T00:22:27;12.90;82.20
22645;DHT22;11489;50.834;6.752;2023-03-23T00:24:53;13.00;82.20
22645;DHT22;11489;50.834;6.752;2023-03-23T00:27:20;12.90;82.20
22645;DHT22;11489;50.834;6.752;2023-03-23T00:29:49;13.00;82.20
22645;DHT22;11489;50.834;6.752;2023-03-23T00:32:19;13.00;82.20
22645;DHT22;11489;50.834;6.752;2023-03-23T00:34:46;12.90;82.20
22645;DHT22;11489;50.834;6.752;2023-03-23T00:37:14;12.90;82.20
22645;DHT22;11489;50.834;6.752;2023-03-23T00:39:42;12.90;82.20
22645;DHT22;11489;50.834;6.752;2023-03-23T00:42:15;12.90;82.20
22645;DHT22;11489;50.834;6.752;2023-03-23T00:44:42;13.00;82.30
22645;DHT22;11489;50.834;6.752;2023-03-23T00:47:10;13.00;82.30
22645;DHT22;11489;50.834;6.752;2023-03-23T00:49:36;13.00;82.30
22645;DHT22;11489;50.834;6.752;2023-03-23T00:52:03;12.90;82.30
22645;DHT22;11489;50.834;6.752;2023-03-23T00:54:30;12.90;82.30
22645;DHT22;11489;50.834;6.752;2023-03-23T00:56:56;13.00;82.30
22645;DHT22;11489;50.834;6.752;2023-03-23T00:59:22;13.00;82.30
22645;DHT22;11489;50.834;6.752;2023-03-23T01:01:48;13.00;82.30
22645;DHT22;11489;50.834;6.752;2023-03-23T01:04:15;13.00;82.30
22645;DHT22;11489;50.834;6.752;2023-03-23T01:06:42;13.00;82.30
22645;DHT22;11489;50.834;6.752;2023-03-23T01:09:13;13.00;82.30
22645;DHT22;11489;50.834;6.752;2023-03-23T01:11:43;13.00;82.30
22645;DHT22;11489;50.834;6.752;2023-03-23T01:14:10;13.00;82.30
22645;DHT22;11489;50.834;6.752;2023-03-23T01:16:36;13.00;82.40
22645;DHT22;11489;50.834;6.752;2023-03-23T01:19:02;13.00;82.40
22645;DHT22;11489;50.834;6.752;2023-03-23T01:21:28;13.00;82.40
22645;DHT22;11489;50.834;6.752;2023-03-23T01:23:54;13.00;82.40
22645;DHT22;11489;50.834;6.752;2023-03-23T01:26:25;13.00;82.50
22645;DHT22;11489;50.834;6.752;2023-03-23T01:28:52;13.00;82.30
22645;DHT22;11489;50.834;6.752;2023-03-23T01:31:23;13.00;82.50
22645;DHT22;11489;50.834;6.752;2023-03-23T01:33:50;13.00;82.40
22645;DHT22;11489;50.834;6.752;2023-03-23T01:36:19;13.00;82.50
22645;DHT22;11489;50.834;6.752;2023-03-23T01:38:47;13.00;82.60
22645;DHT22;11489;50.834;6.752;2023-03-23T01:41:13;13.00;82.60
22645;DHT22;11489;50.834;6.752;2023-03-23T01:44:00;13.00;82.50
22645;DHT22;11489;50.834;6.752;2023-03-23T01:46:34;12.90;82.20
22645;DHT22;11489;50.834;6.752;2023-03-23T01:49:06;12.90;82.40
22645;DHT22;11489;50.834;6.752;2023-03-23T01:51:39;12.80;82.50
22645;DHT22;11489;50.834;6.752;2023-03-23T01:54:08;12.80;82.70
22645;DHT22;11489;50.834;6.752;2023-03-23T01:56:41;12.70;82.70
22645;DHT22;11489;50.834;6.752;2023-03-23T01:59:10;12.70;83.00
22645;DHT22;11489;50.834;6.752;2023-03-23T02:01:37;12.60;83.00
22645;DHT22;11489;50.834;6.752;2023-03-23T02:04:08;12.50;83.20
22645;DHT22;11489;50.834;6.752;2023-03-23T02:06:34;12.50;83.30
22645;DHT22;11489;50.834;6.752;2023-03-23T02:09:00;12.50;83.50
22645;DHT22;11489;50.834;6.752;2023-03-23T02:11:26;12.50;83.70
22645;DHT22;11489;50.834;6.752;2023-03-23T02:13:53;12.40;83.80
22645;DHT22;11489;50.834;6.752;2023-03-23T02:16:21;12.40;83.90
22645;DHT22;11489;50.834;6.752;2023-03-23T02:18:52;12.40;83.90
22645;DHT22;11489;50.834;6.752;2023-03-23T02:21:34;12.40;84.00
22645;DHT22;11489;50.834;6.752;2023-03-23T02:24:19;12.40;84.00
22645;DHT22;11489;50.834;6.752;2023-03-23T02:27:01;12.40;83.90
22645;DHT22;11489;50.834;6.752;2023-03-23T02:29:55;12.40;83.90
22645;DHT22;11489;50.834;6.752;2023-03-23T02:35:35;12.30;83.90
22645;DHT22;11489;50.834;6.752;2023-03-23T02:38:06;12.30;84.00
22645;DHT22;11489;50.834;6.752;2023-03-23T02:40:39;12.20;84.10
22645;DHT22;11489;50.834;6.752;2023-03-23T02:43:09;12.20;84.20
22645;DHT22;11489;50.834;6.752;2023-03-23T02:45:37;12.10;84.30
22645;DHT22;11489;50.834;6.752;2023-03-23T02:48:05;12.10;84.40
22645;DHT22;11489;50.834;6.752;2023-03-23T02:50:33;12.00;84.40
22645;DHT22;11489;50.834;6.752;2023-03-23T02:53:01;12.00;84.60
22645;DHT22;11489;50.834;6.752;2023-03-23T02:55:29;11.90;84.70
22645;DHT22;11489;50.834;6.752;2023-03-23T02:57:56;11.90;84.90
22645;DHT22;11489;50.834;6.752;2023-03-23T03:00:22;11.90;85.10
22645;DHT22;11489;50.834;6.752;2023-03-23T03:02:53;11.80;85.20
22645;DHT22;11489;50.834;6.752;2023-03-23T03:08:12;11.80;85.40
22645;DHT22;11489;50.834;6.752;2023-03-23T03:10:59;11.80;85.50
22645;DHT22;11489;50.834;6.752;2023-03-23T03:19:11;11.90;86.20
22645;DHT22;11489;50.834;6.752;2023-03-23T03:21:42;11.90;85.60
22645;DHT22;11489;50.834;6.752;2023-03-23T03:24:10;11.90;85.60
22645;DHT22;11489;50.834;6.752;2023-03-23T03:26:43;11.90;85.50
22645;DHT22;11489;50.834;6.752;2023-03-23T03:29:21;11.90;85.50
22645;DHT22;11489;50.834;6.752;2023-03-23T03:31:50;11.90;85.50
22645;DHT22;11489;50.834;6.752;2023-03-23T03:34:17;11.90;85.60
22645;DHT22;11489;50.834;6.752;2023-03-23T03:36:46;11.90;85.60
22645;DHT22;11489;50.834;6.752;2023-03-23T03:39:14;11.90;85.60
22645;DHT22;11489;50.834;6.752;2023-03-23T03:41:42;11.90;85.80
22645;DHT22;11489;50.834;6.752;2023-03-23T03:44:08;11.90;85.80
22645;DHT22;11489;50.834;6.752;2023-03-23T03:46:35;11.90;85.80
22645;DHT22;11489;50.834;6.752;2023-03-23T03:49:02;11.90;85.90
22645;DHT22;11489;50.834;6.752;2023-03-23T03:51:29;11.90;85.90
22645;DHT22;11489;50.834;6.752;2023-03-23T03:53:56;11.90;85.90
22645;DHT22;11489;50.834;6.752;2023-03-23T03:56:23;11.90;86.00
22645;DHT22;11489;50.834;6.752;2023-03-23T03:58:50;11.90;86.00
22645;DHT22;11489;50.834;6.752;2023-03-23T04:01:17;12.00;86.10
22645;DHT22;11489;50.834;6.752;2023-03-23T04:03:43;12.00;86.20
22645;DHT22;11489;50.834;6.752;2023-03-23T04:06:10;12.00;86.20
22645;DHT22;11489;50.834;6.752;2023-03-23T04:08:36;12.00;86.10
22645;DHT22;11489;50.834;6.752;2023-03-23T04:11:08;12.00;86.10
22645;DHT22;11489;50.834;6.752;2023-03-23T04:13:34;12.00;86.00
22645;DHT22;11489;50.834;6.752;2023-03-23T04:16:00;12.00;85.90
22645;DHT22;11489;50.834;6.752;2023-03-23T04:18:26;12.00;85.80
22645;DHT22;11489;50.834;6.752;2023-03-23T04:20:52;12.00;85.70
22645;DHT22;11489;50.834;6.752;2023-03-23T04:23:19;12.00;85.60
22645;DHT22;11489;50.834;6.752;2023-03-23T04:25:48;12.00;85.70
22645;DHT22;11489;50.834;6.752;2023-03-23T04:28:16;11.90;85.60
22645;DHT22;11489;50.834;6.752;2023-03-23T04:30:50;11.90;85.70
22645;DHT22;11489;50.834;6.752;2023-03-23T04:33:23;11.90;85.80
22645;DHT22;11489;50.834;6.752;2023-03-23T04:35:52;11.80;86.00
22645;DHT22;11489;50.834;6.752;2023-03-23T04:38:19;11.80;85.90
22645;DHT22;11489;50.834;6.752;2023-03-23T04:40:50;11.80;86.00
22645;DHT22;11489;50.834;6.752;2023-03-23T04:43:20;11.70;86.10
22645;DHT22;11489;50.834;6.752;2023-03-23T04:45:52;11.70;86.20
22645;DHT22;11489;50.834;6.752;2023-03-23T04:48:17;11.70;86.30
22645;DHT22;11489;50.834;6.752;2023-03-23T04:50:45;11.70;86.40
22645;DHT22;11489;50.834;6.752;2023-03-23T04:53:10;11.70;86.40
22645;DHT22;11489;50.834;6.752;2023-03-23T04:55:36;11.60;86.40
22645;DHT22;11489;50.834;6.752;2023-03-23T04:58:04;11.60;86.40
22645;DHT22;11489;50.834;6.752;2023-03-23T05:00:31;11.60;86.50
22645;DHT22;11489;50.834;6.752;2023-03-23T05:02:58;11.60;86.50
22645;DHT22;11489;50.834;6.752;2023-03-23T05:05:25;11.60;86.60
22645;DHT22;11489;50.834;6.752;2023-03-23T05:07:51;11.60;86.70
22645;DHT22;11489;50.834;6.752;2023-03-23T05:10:17;11.60;86.70
22645;DHT22;11489;50.834;6.752;2023-03-23T05:12:43;11.60;86.80
22645;DHT22;11489;50.834;6.752;2023-03-23T05:15:10;11.60;86.80
22645;DHT22;11489;50.834;6.752;2023-03-23T05:17:36;11.60;86.80
22645;DHT22;11489;50.834;6.752;2023-03-23T05:20:04;11.60;86.80
22645;DHT22;11489;50.834;6.752;2023-03-23T05:22:33;11.60;86.70
22645;DHT22;11489;50.834;6.752;2023-03-23T05:24:59;11.70;86.70
22645;DHT22;11489;50.834;6.752;2023-03-23T05:27:28;11.70;86.60
22645;DHT22;11489;50.834;6.752;2023-03-23T05:29:59;11.70;86.50
22645;DHT22;11489;50.834;6.752;2023-03-23T05:32:26;11.80;86.40
22645;DHT22;11489;50.834;6.752;2023-03-23T05:34:56;11.80;86.40
22645;DHT22;11489;50.834;6.752;2023-03-23T05:37:22;11.80;86.30
22645;DHT22;11489;50.834;6.752;2023-03-23T05:39:48;11.80;86.20
22645;DHT22;11489;50.834;6.752;2023-03-23T05:42:14;11.90;86.10
22645;DHT22;11489;50.834;6.752;2023-03-23T05:44:40;11.90;86.10
22645;DHT22;11489;50.834;6.752;2023-03-23T05:47:05;11.90;86.60
22645;DHT22;11489;50.834;6.752;2023-03-23T05:49:31;11.90;85.80
22645;DHT22;11489;50.834;6.752;2023-03-23T05:51:57;11.90;85.70
22645;DHT22;11489;50.834;6.752;2023-03-23T05:54:22;12.00;85.60
22645;DHT22;11489;50.834;6.752;2023-03-23T05:56:48;12.00;85.50
22645;DHT22;11489;50.834;6.752;2023-03-23T05:59:14;12.00;85.40
22645;DHT22;11489;50.834;6.752;2023-03-23T06:01:40;12.00;85.30
22645;DHT22;11489;50.834;6.752;2023-03-23T06:04:06;12.00;85.10
22645;DHT22;11489;50.834;6.752;2023-03-23T06:06:31;12.00;85.00
22645;DHT22;11489;50.834;6.752;2023-03-23T06:08:58;12.00;85.00
22645;DHT22;11489;50.834;6.752;2023-03-23T06:11:25;12.00;84.90
22645;DHT22;11489;50.834;6.752;2023-03-23T06:13:51;12.00;84.90
22645;DHT22;11489;50.834;6.752;2023-03-23T06:16:18;12.00;85.00
22645;DHT22;11489;50.834;6.752;2023-03-23T06:18:44;12.00;85.10
22645;DHT22;11489;50.834;6.752;2023-03-23T06:21:11;12.00;85.10
22645;DHT22;11489;50.834;6.752;2023-03-23T06:23:37;12.00;85.10
22645;DHT22;11489;50.834;6.752;2023-03-23T06:26:05;12.10;85.20
22645;DHT22;11489;50.834;6.752;2023-03-23T06:28:32;12.10;85.10
22645;DHT22;11489;50.834;6.752;2023-03-23T06:31:03;12.20;85.80
22645;DHT22;11489;50.834;6.752;2023-03-23T06:33:32;12.20;85.10
22645;DHT22;11489;50.834;6.752;2023-03-23T06:35:59;12.20;85.00
22645;DHT22;11489;50.834;6.752;2023-03-23T06:38:25;12.30;85.10
22645;DHT22;11489;50.834;6.752;2023-03-23T06:40:53;12.30;85.10
22645;DHT22;11489;50.834;6.752;2023-03-23T06:43:19;12.30;85.00
22645;DHT22;11489;50.834;6.752;2023-03-23T06:45:44;12.30;85.00
22645;DHT22;11489;50.834;6.752;2023-03-23T06:48:10;12.40;84.90
22645;DHT22;11489;50.834;6.752;2023-03-23T06:50:36;12.40;84.90
22645;DHT22;11489;50.834;6.752;2023-03-23T06:53:01;12.50;85.00
22645;DHT22;11489;50.834;6.752;2023-03-23T06:55:27;12.50;84.90
22645;DHT22;11489;50.834;6.752;2023-03-23T06:57:53;12.50;85.60
22645;DHT22;11489;50.834;6.752;2023-03-23T07:00:19;12.60;84.90
22645;DHT22;11489;50.834;6.752;2023-03-23T07:02:44;12.60;84.60
22645;DHT22;11489;50.834;6.752;2023-03-23T07:05:11;12.70;84.70
22645;DHT22;11489;50.834;6.752;2023-03-23T07:07:38;12.70;84.60
22645;DHT22;11489;50.834;6.752;2023-03-23T07:10:05;12.70;84.50
22645;DHT22;11489;50.834;6.752;2023-03-23T07:12:31;12.70;84.50
22645;DHT22;11489;50.834;6.752;2023-03-23T07:14:58;12.80;84.40
22645;DHT22;11489;50.834;6.752;2023-03-23T07:17:25;12.80;84.30
22645;DHT22;11489;50.834;6.752;2023-03-23T07:19:50;12.90;84.30
22645;DHT22;11489;50.834;6.752;2023-03-23T07:22:16;12.90;84.20
22645;DHT22;11489;50.834;6.752;2023-03-23T07:24:42;12.90;84.20
22645;DHT22;11489;50.834;6.752;2023-03-23T07:27:08;13.00;84.20
22645;DHT22;11489;50.834;6.752;2023-03-23T07:29:35;13.00;84.10
22645;DHT22;11489;50.834;6.752;2023-03-23T07:32:04;13.00;83.90
22645;DHT22;11489;50.834;6.752;2023-03-23T07:34:30;13.10;83.90
22645;DHT22;11489;50.834;6.752;2023-03-23T07:36:57;13.10;83.70
22645;DHT22;11489;50.834;6.752;2023-03-23T07:39:24;13.20;83.50
22645;DHT22;11489;50.834;6.752;2023-03-23T07:41:51;13.20;83.40
22645;DHT22;11489;50.834;6.752;2023-03-23T07:44:16;13.20;83.40
22645;DHT22;11489;50.834;6.752;2023-03-23T07:46:42;13.30;83.30
22645;DHT22;11489;50.834;6.752;2023-03-23T07:49:09;13.30;83.10
22645;DHT22;11489;50.834;6.752;2023-03-23T07:51:36;13.30;83.90
22645;DHT22;11489;50.834;6.752;2023-03-23T07:54:04;13.40;84.00
22645;DHT22;11489;50.834;6.752;2023-03-23T07:56:31;13.40;83.20
22645;DHT22;11489;50.834;6.752;2023-03-23T07:58:56;13.40;83.10
22645;DHT22;11489;50.834;6.752;2023-03-23T08:01:22;13.50;83.00
22645;DHT22;11489;50.834;6.752;2023-03-23T08:03:49;13.50;82.80
22645;DHT22;11489;50.834;6.752;2023-03-23T08:06:15;13.60;82.90
22645;DHT22;11489;50.834;6.752;2023-03-23T08:08:41;13.60;82.80
22645;DHT22;11489;50.834;6.752;2023-03-23T08:11:07;13.60;82.70
22645;DHT22;11489;50.834;6.752;2023-03-23T08:13:33;13.70;82.70
22645;DHT22;11489;50.834;6.752;2023-03-23T08:16:00;13.80;82.50
22645;DHT22;11489;50.834;6.752;2023-03-23T08:18:30;13.80;82.20
22645;DHT22;11489;50.834;6.752;2023-03-23T08:20:56;13.80;82.10
22645;DHT22;11489;50.834;6.752;2023-03-23T08:23:21;13.90;82.10
22645;DHT22;11489;50.834;6.752;2023-03-23T08:25:48;13.90;82.00
22645;DHT22;11489;50.834;6.752;2023-03-23T08:28:14;13.90;81.70
22645;DHT22;11489;50.834;6.752;2023-03-23T08:30:40;14.00;81.60
22645;DHT22;11489;50.834;6.752;2023-03-23T08:33:07;14.00;81.40
22645;DHT22;11489;50.834;6.752;2023-03-23T08:35:35;14.00;81.40
22645;DHT22;11489;50.834;6.752;2023-03-23T08:38:01;14.10;81.40
22645;DHT22;11489;50.834;6.752;2023-03-23T08:40:28;14.20;81.40
22645;DHT22;11489;50.834;6.752;2023-03-23T08:42:54;14.20;81.30
22645;DHT22;11489;50.834;6.752;2023-03-23T08:45:22;14.20;81.20
22645;DHT22;11489;50.834;6.752;2023-03-23T08:47:49;14.20;80.50
22645;DHT22;11489;50.834;6.752;2023-03-23T08:50:24;14.30;80.70
22645;DHT22;11489;50.834;6.752;2023-03-23T08:52:50;14.30;80.60
22645;DHT22;11489;50.834;6.752;2023-03-23T08:55:16;14.40;80.60
22645;DHT22;11489;50.834;6.752;2023-03-23T08:57:44;14.40;80.60
22645;DHT22;11489;50.834;6.752;2023-03-23T09:00:13;14.40;80.60
22645;DHT22;11489;50.834;6.752;2023-03-23T09:02:44;14.50;80.30
22645;DHT22;11489;50.834;6.752;2023-03-23T09:05:11;14.50;80.60
22645;DHT22;11489;50.834;6.752;2023-03-23T09:07:38;14.60;80.80
22645;DHT22;11489;50.834;6.752;2023-03-23T09:10:06;14.70;80.60
22645;DHT22;11489;50.834;6.752;2023-03-23T09:12:32;14.70;80.70
22645;DHT22;11489;50.834;6.752;2023-03-23T09:14:57;14.80;80.60
22645;DHT22;11489;50.834;6.752;2023-03-23T09:17:23;14.90;80.60
22645;DHT22;11489;50.834;6.752;2023-03-23T09:19:49;15.00;80.50
22645;DHT22;11489;50.834;6.752;2023-03-23T09:22:14;15.10;80.10
22645;DHT22;11489;50.834;6.752;2023-03-23T09:24:45;15.10;79.70
22645;DHT22;11489;50.834;6.752;2023-03-23T09:27:12;15.10;79.10
22645;DHT22;11489;50.834;6.752;2023-03-23T09:29:37;15.20;78.70
22645;DHT22;11489;50.834;6.752;2023-03-23T09:32:03;15.20;78.50
22645;DHT22;11489;50.834;6.752;2023-03-23T09:34:29;15.20;78.40
22645;DHT22;11489;50.834;6.752;2023-03-23T09:36:55;15.20;78.50
22645;DHT22;11489;50.834;6.752;2023-03-23T09:39:21;15.20;78.20
22645;DHT22;11489;50.834;6.752;2023-03-23T09:41:59;15.20;77.70
22645;DHT22;11489;50.834;6.752;2023-03-23T09:44:52;15.20;77.30
22645;DHT22;11489;50.834;6.752;2023-03-23T09:47:31;15.20;75.70
22645;DHT22;11489;50.834;6.752;2023-03-23T09:50:11;15.10;76.60
22645;DHT22;11489;50.834;6.752;2023-03-23T09:52:45;15.10;76.20
22645;DHT22;11489;50.834;6.752;2023-03-23T09:55:15;15.00;77.20
22645;DHT22;11489;50.834;6.752;2023-03-23T09:58:08;15.00;77.30
22645;DHT22;11489;50.834;6.752;2023-03-23T10:00:48;14.90;76.90
22645;DHT22;11489;50.834;6.752;2023-03-23T10:03:18;14.90;77.60
22645;DHT22;11489;50.834;6.752;2023-03-23T10:05:50;14.90;78.70
22645;DHT22;11489;50.834;6.752;2023-03-23T10:08:22;15.00;78.90
22645;DHT22;11489;50.834;6.752;2023-03-23T10:11:03;15.10;79.20
22645;DHT22;11489;50.834;6.752;2023-03-23T10:14:04;15.20;78.40
22645;DHT22;11489;50.834;6.752;2023-03-23T10:16:39;15.30;77.70
22645;DHT22;11489;50.834;6.752;2023-03-23T10:22:08;15.40;78.30
22645;DHT22;11489;50.834;6.752;2023-03-23T10:24:40;15.40;77.10
22645;DHT22;11489;50.834;6.752;2023-03-23T10:27:23;15.40;78.10
22645;DHT22;11489;50.834;6.752;2023-03-23T10:30:10;15.40;77.20
22645;DHT22;11489;50.834;6.752;2023-03-23T10:35:20;15.30;77.60
22645;DHT22;11489;50.834;6.752;2023-03-23T10:37:53;15.30;78.70
22645;DHT22;11489;50.834;6.752;2023-03-23T10:40:26;15.40;79.80
22645;DHT22;11489;50.834;6.752;2023-03-23T10:42:53;15.60;80.30
22645;DHT22;11489;50.834;6.752;2023-03-23T10:45:22;15.70;80.40
22645;DHT22;11489;50.834;6.752;2023-03-23T10:48:11;15.90;79.60
22645;DHT22;11489;50.834;6.752;2023-03-23T10:50:38;16.00;78.90
22645;DHT22;11489;50.834;6.752;2023-03-23T10:53:16;16.10;78.90
22645;DHT22;11489;50.834;6.752;2023-03-23T10:55:43;16.10;77.60
22645;DHT22;11489;50.834;6.752;2023-03-23T10:58:21;16.20;78.20
22645;DHT22;11489;50.834;6.752;2023-03-23T11:00:47;16.30;78.00
22645;DHT22;11489;50.834;6.752;2023-03-23T11:05:54;16.40;78.50
22645;DHT22;11489;50.834;6.752;2023-03-23T11:08:28;16.50;76.80
22645;DHT22;11489;50.834;6.752;2023-03-23T11:11:21;16.60;77.70
22645;DHT22;11489;50.834;6.752;2023-03-23T11:13:56;16.60;75.90
22645;DHT22;11489;50.834;6.752;2023-03-23T11:16:25;16.70;76.50
22645;DHT22;11489;50.834;6.752;2023-03-23T11:18:51;16.70;77.30
22645;DHT22;11489;50.834;6.752;2023-03-23T11:21:20;16.80;77.20
22645;DHT22;11489;50.834;6.752;2023-03-23T11:23:57;16.80;77.20
22645;DHT22;11489;50.834;6.752;2023-03-23T11:26:29;16.90;76.40
22645;DHT22;11489;50.834;6.752;2023-03-23T11:28:57;16.90;75.90
22645;DHT22;11489;50.834;6.752;2023-03-23T11:31:28;16.80;76.20
22645;DHT22;11489;50.834;6.752;2023-03-23T11:34:01;16.80;76.10
22645;DHT22;11489;50.834;6.752;2023-03-23T11:36:30;16.80;76.60
22645;DHT22;11489;50.834;6.752;2023-03-23T11:38:57;16.90;76.60
22645;DHT22;11489;50.834;6.752;2023-03-23T11:41:30;16.90;76.70
22645;DHT22;11489;50.834;6.752;2023-03-23T11:43:56;16.90;76.40
22645;DHT22;11489;50.834;6.752;2023-03-23T11:46:32;17.00;76.80
22645;DHT22;11489;50.834;6.752;2023-03-23T11:49:03;17.00;75.80
22645;DHT22;11489;50.834;6.752;2023-03-23T11:51:52;17.10;76.50
22645;DHT22;11489;50.834;6.752;2023-03-23T11:56:52;17.20;75.60
22645;DHT22;11489;50.834;6.752;2023-03-23T11:59:33;17.20;75.40
22645;DHT22;11489;50.834;6.752;2023-03-23T12:07:27;17.00;73.90
22645;DHT22;11489;50.834;6.752;2023-03-23T12:10:11;16.90;73.90
22645;DHT22;11489;50.834;6.752;2023-03-23T12:23:54;16.90;75.20
22645;DHT22;11489;50.834;6.752;2023-03-23T12:26:26;16.90;73.50
22645;DHT22;11489;50.834;6.752;2023-03-23T12:32:13;16.90;74.30
22645;DHT22;11489;50.834;6.752;2023-03-23T12:34:56;16.80;73.40
22645;DHT22;11489;50.834;6.752;2023-03-23T12:43:17;16.70;74.10
22645;DHT22;11489;50.834;6.752;2023-03-23T12:48:24;16.70;74.30
22645;DHT22;11489;50.834;6.752;2023-03-23T12:51:32;16.70;74.60
22645;DHT22;11489;50.834;6.752;2023-03-23T12:53:58;16.80;74.50
22645;DHT22;11489;50.834;6.752;2023-03-23T12:59:16;16.70;73.90
22645;DHT22;11489;50.834;6.752;2023-03-23T13:01:54;16.70;73.40
22645;DHT22;11489;50.834;6.752;2023-03-23T13:04:27;16.70;74.00
22645;DHT22;11489;50.834;6.752;2023-03-23T13:06:55;16.60;74.30
22645;DHT22;11489;50.834;6.752;2023-03-23T13:10:02;16.60;74.20
22645;DHT22;11489;50.834;6.752;2023-03-23T13:12:30;16.50;72.90
22645;DHT22;11489;50.834;6.752;2023-03-23T13:14:59;16.50;74.60
22645;DHT22;11489;50.834;6.752;2023-03-23T13:23:10;16.40;73.50
22645;DHT22;11489;50.834;6.752;2023-03-23T13:25:51;16.30;72.80
22645;DHT22;11489;50.834;6.752;2023-03-23T13:28:25;16.20;73.20
22645;DHT22;11489;50.834;6.752;2023-03-23T13:30:58;16.10;73.90
22645;DHT22;11489;50.834;6.752;2023-03-23T13:33:24;16.00;74.20
22645;DHT22;11489;50.834;6.752;2023-03-23T13:35:50;16.00;74.80
22645;DHT22;11489;50.834;6.752;2023-03-23T13:38:27;16.00;75.50
22645;DHT22;11489;50.834;6.752;2023-03-23T13:40:57;16.00;75.20
22645;DHT22;11489;50.834;6.752;2023-03-23T13:43:28;16.00;76.20
22645;DHT22;11489;50.834;6.752;2023-03-23T13:45:55;16.10;75.70
22645;DHT22;11489;50.834;6.752;2023-03-23T13:48:46;16.20;76.20
22645;DHT22;11489;50.834;6.752;2023-03-23T13:59:15;16.80;75.60
22645;DHT22;11489;50.834;6.752;2023-03-23T14:01:42;16.90;75.70
22645;DHT22;11489;50.834;6.752;2023-03-23T14:04:16;17.10;76.20
22645;DHT22;11489;50.834;6.752;2023-03-23T14:06:45;17.20;74.30
22645;DHT22;11489;50.834;6.752;2023-03-23T14:09:19;17.40;74.70
22645;DHT22;11489;50.834;6.752;2023-03-23T14:11:59;17.50;74.40
22645;DHT22;11489;50.834;6.752;2023-03-23T14:14:32;17.60;72.30
22645;DHT22;11489;50.834;6.752;2023-03-23T14:19:42;17.60;70.90
22645;DHT22;11489;50.834;6.752;2023-03-23T14:22:33;17.50;72.20
22645;DHT22;11489;50.834;6.752;2023-03-23T14:25:02;17.40;71.20
22645;DHT22;11489;50.834;6.752;2023-03-23T14:27:34;17.30;72.10
22645;DHT22;11489;50.834;6.752;2023-03-23T14:30:04;17.20;71.90
22645;DHT22;11489;50.834;6.752;2023-03-23T14:32:31;17.10;71.60
22645;DHT22;11489;50.834;6.752;2023-03-23T14:34:59;16.90;71.70
22645;DHT22;11489;50.834;6.752;2023-03-23T14:37:25;16.80;71.90
22645;DHT22;11489;50.834;6.752;2023-03-23T14:39:53;16.80;72.30
22645;DHT22;11489;50.834;6.752;2023-03-23T14:42:28;16.70;72.60
22645;DHT22;11489;50.834;6.752;2023-03-23T14:44:55;16.70;72.20
22645;DHT22;11489;50.834;6.752;2023-03-23T14:47:33;16.70;73.60
22645;DHT22;11489;50.834;6.752;2023-03-23T14:50:03;16.70;73.30
22645;DHT22;11489;50.834;6.752;2023-03-23T14:52:34;16.90;74.90
22645;DHT22;11489;50.834;6.752;2023-03-23T14:55:13;17.00;74.70
22645;DHT22;11489;50.834;6.752;2023-03-23T14:57:43;17.20;73.30
22645;DHT22;11489;50.834;6.752;2023-03-23T15:00:17;17.30;73.60
22645;DHT22;11489;50.834;6.752;2023-03-23T15:02:47;17.40;73.30
22645;DHT22;11489;50.834;6.752;2023-03-23T15:05:15;17.50;73.50
22645;DHT22;11489;50.834;6.752;2023-03-23T15:07:46;17.60;73.50
22645;DHT22;11489;50.834;6.752;2023-03-23T15:10:17;17.80;73.10
22645;DHT22;11489;50.834;6.752;2023-03-23T15:12:45;17.90;72.50
22645;DHT22;11489;50.834;6.752;2023-03-23T15:15:25;18.00;72.50
22645;DHT22;11489;50.834;6.752;2023-03-23T15:17:51;18.10;70.90
22645;DHT22;11489;50.834;6.752;2023-03-23T15:20:29;18.10;72.10
22645;DHT22;11489;50.834;6.752;2023-03-23T15:22:56;18.20;70.50
22645;DHT22;11489;50.834;6.752;2023-03-23T15:27:55;18.20;70.00
22645;DHT22;11489;50.834;6.752;2023-03-23T15:32:55;18.20;70.60
22645;DHT22;11489;50.834;6.752;2023-03-23T15:35:25;18.30;69.90
22645;DHT22;11489;50.834;6.752;2023-03-23T15:37:53;18.30;70.90
22645;DHT22;11489;50.834;6.752;2023-03-23T15:40:24;18.30;70.50
22645;DHT22;11489;50.834;6.752;2023-03-23T15:43:14;18.20;70.40
22645;DHT22;11489;50.834;6.752;2023-03-23T15:46:04;18.30;68.60
22645;DHT22;11489;50.834;6.752;2023-03-23T15:51:23;18.20;68.40
22645;DHT22;11489;50.834;6.752;2023-03-23T15:53:51;18.10;69.50
22645;DHT22;11489;50.834;6.752;2023-03-23T15:56:17;18.10;69.50
22645;DHT22;11489;50.834;6.752;2023-03-23T15:58:43;17.90;69.50
22645;DHT22;11489;50.834;6.752;2023-03-23T16:01:15;17.90;69.50
22645;DHT22;11489;50.834;6.752;2023-03-23T16:04:03;17.90;68.30
22645;DHT22;11489;50.834;6.752;2023-03-23T16:06:32;17.80;67.30
22645;DHT22;11489;50.834;6.752;2023-03-23T16:08:58;17.70;68.90
22645;DHT22;11489;50.834;6.752;2023-03-23T16:11:27;17.70;69.10
22645;DHT22;11489;50.834;6.752;2023-03-23T16:13:54;17.70;68.60
22645;DHT22;11489;50.834;6.752;2023-03-23T16:16:23;17.60;68.90
22645;DHT22;11489;50.834;6.752;2023-03-23T16:18:50;17.60;68.80
22645;DHT22;11489;50.834;6.752;2023-03-23T16:21:16;17.50;68.80
22645;DHT22;11489;50.834;6.752;2023-03-23T16:23:41;17.40;68.60
22645;DHT22;11489;50.834;6.752;2023-03-23T16:26:11;17.40;68.70
22645;DHT22;11489;50.834;6.752;2023-03-23T16:28:37;17.30;68.20
22645;DHT22;11489;50.834;6.752;2023-03-23T16:31:03;17.20;68.00
22645;DHT22;11489;50.834;6.752;2023-03-23T16:33:28;17.10;67.90
22645;DHT22;11489;50.834;6.752;2023-03-23T16:35:54;17.00;67.60
22645;DHT22;11489;50.834;6.752;2023-03-23T16:38:21;16.80;67.90
22645;DHT22;11489;50.834;6.752;2023-03-23T16:40:48;16.70;68.30
22645;DHT22;11489;50.834;6.752;2023-03-23T16:43:13;16.60;68.40
22645;DHT22;11489;50.834;6.752;2023-03-23T16:45:41;16.50;68.60
22645;DHT22;11489;50.834;6.752;2023-03-23T16:48:07;16.40;68.80
22645;DHT22;11489;50.834;6.752;2023-03-23T16:50:34;16.40;69.10
22645;DHT22;11489;50.834;6.752;2023-03-23T16:53:01;16.30;69.10
22645;DHT22;11489;50.834;6.752;2023-03-23T16:55:27;16.30;69.00
22645;DHT22;11489;50.834;6.752;2023-03-23T16:57:53;16.20;68.80
22645;DHT22;11489;50.834;6.752;2023-03-23T17:00:20;16.10;68.80
22645;DHT22;11489;50.834;6.752;2023-03-23T17:02:50;16.10;68.90